sensor_id;sensor_type;location;lat;lon;timestamp;P1;durP1;ratioP1;P2;durP2;ratioP2
11006;SDS011;8186;57.652;11.968;2023-11-21T00:00:33;8.20;;;5.73;;
11006;SDS011;8186;57.652;11.968;2023-11-21T00:03:00;6.67;;;5.97;;
11006;SDS011;8186;57.652;11.968;2023-11-21T00:05:27;6.77;;;5.53;;
11006;SDS011;8186;57.652;11.968;2023-11-21T00:07:55;7.47;;;5.73;;
11006;SDS011;8186;57.652;11.968;2023-11-21T00:10:22;8.80;;;5.40;;
11006;SDS011;8186;57.652;11.968;2023-11-21T00:12:49;6.97;;;5.40;;
11006;SDS011;8186;57.652;11.968;2023-11-21T00:15:16;6.13;;;5.13;;
11006;SDS011;8186;57.652;11.968;2023-11-21T00:17:43;7.00;;;5.70;;
11006;SDS011;8186;57.652;11.968;2023-11-21T00:20:11;7.23;;;5.70;;
11006;SDS011;8186;57.652;11.968;2023-11-21T00:22:39;6.80;;;5.57;;
11006;SDS011;8186;57.652;11.968;2023-11-21T00:25:08;8.33;;;6.23;;
11006;SDS011;8186;57.652;11.968;2023-11-21T00:27:35;7.00;;;5.33;;
11006;SDS011;8186;57.652;11.968;2023-11-21T00:30:02;6.07;;;5.47;;
11006;SDS011;8186;57.652;11.968;2023-11-21T00:32:31;7.27;;;5.90;;
11006;SDS011;8186;57.652;11.968;2023-11-21T00:34:57;7.23;;;5.97;;
11006;SDS011;8186;57.652;11.968;2023-11-21T00:37:24;5.93;;;5.23;;
11006;SDS011;8186;57.652;11.968;2023-11-21T00:39:51;7.47;;;5.83;;
11006;SDS011;8186;57.652;11.968;2023-11-21T00:42:19;7.13;;;6.10;;
11006;SDS011;8186;57.652;11.968;2023-11-21T00:44:48;7.27;;;6.17;;
11006;SDS011;8186;57.652;11.968;2023-11-21T00:47:14;6.87;;;5.83;;
11006;SDS011;8186;57.652;11.968;2023-11-21T00:49:41;7.43;;;6.23;;
11006;SDS011;8186;57.652;11.968;2023-11-21T00:52:08;6.43;;;5.70;;
11006;SDS011;8186;57.652;11.968;2023-11-21T00:54:35;6.57;;;5.70;;
11006;SDS011;8186;57.652;11.968;2023-11-21T00:57:02;6.30;;;5.70;;
11006;SDS011;8186;57.652;11.968;2023-11-21T00:59:31;7.17;;;5.93;;
11006;SDS011;8186;57.652;11.968;2023-11-21T01:01:57;7.73;;;6.17;;
11006;SDS011;8186;57.652;11.968;2023-11-21T01:04:25;7.43;;;5.90;;
11006;SDS011;8186;57.652;11.968;2023-11-21T01:06:52;6.73;;;5.83;;
11006;SDS011;8186;57.652;11.968;2023-11-21T01:09:19;6.70;;;5.80;;
11006;SDS011;8186;57.652;11.968;2023-11-21T01:11:46;7.63;;;6.50;;
11006;SDS011;8186;57.652;11.968;2023-11-21T01:14:12;6.50;;;5.80;;
11006;SDS011;8186;57.652;11.968;2023-11-21T01:16:41;6.77;;;5.67;;
11006;SDS011;8186;57.652;11.968;2023-11-21T01:19:07;6.70;;;5.10;;
11006;SDS011;8186;57.652;11.968;2023-11-21T01:21:34;6.77;;;5.73;;
11006;SDS011;8186;57.652;11.968;2023-11-21T01:24:01;7.70;;;5.60;;
11006;SDS011;8186;57.652;11.968;2023-11-21T01:26:30;7.30;;;5.97;;
11006;SDS011;8186;57.652;11.968;2023-11-21T01:28:57;7.47;;;5.87;;
11006;SDS011;8186;57.652;11.968;2023-11-21T01:31:24;7.00;;;6.13;;
11006;SDS011;8186;57.652;11.968;2023-11-21T01:33:55;7.33;;;6.03;;
11006;SDS011;8186;57.652;11.968;2023-11-21T01:36:22;7.43;;;5.87;;
11006;SDS011;8186;57.652;11.968;2023-11-21T01:38:49;6.60;;;5.77;;
11006;SDS011;8186;57.652;11.968;2023-11-21T01:41:16;6.43;;;5.53;;
11006;SDS011;8186;57.652;11.968;2023-11-21T01:43:43;7.97;;;6.67;;
11006;SDS011;8186;57.652;11.968;2023-11-21T01:46:10;7.40;;;6.30;;
11006;SDS011;8186;57.652;11.968;2023-11-21T01:48:36;7.80;;;6.30;;
11006;SDS011;8186;57.652;11.968;2023-11-21T01:51:05;7.67;;;6.33;;
11006;SDS011;8186;57.652;11.968;2023-11-21T01:53:33;7.90;;;5.80;;
11006;SDS011;8186;57.652;11.968;2023-11-21T01:56:02;8.00;;;6.73;;
11006;SDS011;8186;57.652;11.968;2023-11-21T01:58:30;9.63;;;6.43;;
11006;SDS011;8186;57.652;11.968;2023-11-21T02:00:57;8.43;;;6.90;;
11006;SDS011;8186;57.652;11.968;2023-11-21T02:03:25;8.47;;;6.27;;
11006;SDS011;8186;57.652;11.968;2023-11-21T02:05:52;7.30;;;6.03;;
11006;SDS011;8186;57.652;11.968;2023-11-21T02:08:20;7.43;;;6.37;;
11006;SDS011;8186;57.652;11.968;2023-11-21T02:10:47;7.70;;;6.30;;
11006;SDS011;8186;57.652;11.968;2023-11-21T02:13:14;8.00;;;6.47;;
11006;SDS011;8186;57.652;11.968;2023-11-21T02:15:41;6.70;;;6.10;;
11006;SDS011;8186;57.652;11.968;2023-11-21T02:18:08;7.13;;;6.00;;
11006;SDS011;8186;57.652;11.968;2023-11-21T02:20:36;8.10;;;6.90;;
11006;SDS011;8186;57.652;11.968;2023-11-21T02:23:05;7.53;;;6.17;;
11006;SDS011;8186;57.652;11.968;2023-11-21T02:25:32;6.70;;;5.97;;
11006;SDS011;8186;57.652;11.968;2023-11-21T02:28:00;6.53;;;5.77;;
11006;SDS011;8186;57.652;11.968;2023-11-21T02:30:28;7.57;;;6.07;;
11006;SDS011;8186;57.652;11.968;2023-11-21T02:32:57;6.93;;;6.00;;
11006;SDS011;8186;57.652;11.968;2023-11-21T02:35:24;7.07;;;6.33;;
11006;SDS011;8186;57.652;11.968;2023-11-21T02:37:52;7.13;;;5.67;;
11006;SDS011;8186;57.652;11.968;2023-11-21T02:40:20;7.33;;;6.07;;
11006;SDS011;8186;57.652;11.968;2023-11-21T02:42:47;7.00;;;6.30;;
11006;SDS011;8186;57.652;11.968;2023-11-21T02:45:16;6.63;;;5.40;;
11006;SDS011;8186;57.652;11.968;2023-11-21T02:47:43;6.50;;;5.90;;
11006;SDS011;8186;57.652;11.968;2023-11-21T02:50:10;7.03;;;5.43;;
11006;SDS011;8186;57.652;11.968;2023-11-21T02:52:37;5.33;;;4.83;;
11006;SDS011;8186;57.652;11.968;2023-11-21T02:55:05;6.00;;;5.40;;
11006;SDS011;8186;57.652;11.968;2023-11-21T02:57:35;6.70;;;5.77;;
11006;SDS011;8186;57.652;11.968;2023-11-21T03:00:02;5.83;;;5.23;;
11006;SDS011;8186;57.652;11.968;2023-11-21T03:02:32;6.63;;;5.93;;
11006;SDS011;8186;57.652;11.968;2023-11-21T03:05:01;6.17;;;5.40;;
11006;SDS011;8186;57.652;11.968;2023-11-21T03:07:30;11.77;;;6.47;;
11006;SDS011;8186;57.652;11.968;2023-11-21T03:09:57;6.47;;;5.70;;
11006;SDS011;8186;57.652;11.968;2023-11-21T03:12:24;8.47;;;6.27;;
11006;SDS011;8186;57.652;11.968;2023-11-21T03:14:52;7.93;;;5.77;;
11006;SDS011;8186;57.652;11.968;2023-11-21T03:17:20;6.93;;;6.23;;
11006;SDS011;8186;57.652;11.968;2023-11-21T03:19:47;6.37;;;5.77;;
11006;SDS011;8186;57.652;11.968;2023-11-21T03:22:14;7.57;;;6.20;;
11006;SDS011;8186;57.652;11.968;2023-11-21T03:24:40;7.60;;;5.90;;
11006;SDS011;8186;57.652;11.968;2023-11-21T03:27:07;6.57;;;5.90;;
11006;SDS011;8186;57.652;11.968;2023-11-21T03:29:34;6.27;;;5.67;;
11006;SDS011;8186;57.652;11.968;2023-11-21T03:32:02;7.57;;;6.17;;
11006;SDS011;8186;57.652;11.968;2023-11-21T03:34:30;7.00;;;5.93;;
11006;SDS011;8186;57.652;11.968;2023-11-21T03:36:57;6.07;;;5.47;;
11006;SDS011;8186;57.652;11.968;2023-11-21T03:39:24;9.90;;;6.07;;
11006;SDS011;8186;57.652;11.968;2023-11-21T03:41:51;6.53;;;5.93;;
11006;SDS011;8186;57.652;11.968;2023-11-21T03:44:18;6.60;;;6.00;;
11006;SDS011;8186;57.652;11.968;2023-11-21T03:46:45;7.50;;;6.03;;
11006;SDS011;8186;57.652;11.968;2023-11-21T03:49:13;6.57;;;5.60;;
11006;SDS011;8186;57.652;11.968;2023-11-21T03:51:40;6.67;;;6.07;;
11006;SDS011;8186;57.652;11.968;2023-11-21T03:54:09;6.33;;;5.43;;
11006;SDS011;8186;57.652;11.968;2023-11-21T03:56:36;6.93;;;5.80;;
11006;SDS011;8186;57.652;11.968;2023-11-21T03:59:03;6.87;;;6.00;;
11006;SDS011;8186;57.652;11.968;2023-11-21T04:01:29;6.77;;;5.97;;
11006;SDS011;8186;57.652;11.968;2023-11-21T04:03:56;7.20;;;5.50;;
11006;SDS011;8186;57.652;11.968;2023-11-21T04:06:25;7.03;;;6.33;;
11006;SDS011;8186;57.652;11.968;2023-11-21T04:08:51;6.37;;;5.77;;
11006;SDS011;8186;57.652;11.968;2023-11-21T04:11:18;6.57;;;5.87;;
11006;SDS011;8186;57.652;11.968;2023-11-21T04:13:45;8.20;;;5.63;;
11006;SDS011;8186;57.652;11.968;2023-11-21T04:16:12;5.93;;;5.20;;
11006;SDS011;8186;57.652;11.968;2023-11-21T04:18:39;6.80;;;6.07;;
11006;SDS011;8186;57.652;11.968;2023-11-21T04:21:06;6.43;;;5.47;;
11006;SDS011;8186;57.652;11.968;2023-11-21T04:23:34;7.60;;;5.40;;
11006;SDS011;8186;57.652;11.968;2023-11-21T04:26:01;6.33;;;5.73;;
11006;SDS011;8186;57.652;11.968;2023-11-21T04:28:28;6.63;;;5.60;;
11006;SDS011;8186;57.652;11.968;2023-11-21T04:30:55;7.43;;;6.00;;
11006;SDS011;8186;57.652;11.968;2023-11-21T04:33:22;6.07;;;5.47;;
11006;SDS011;8186;57.652;11.968;2023-11-21T04:35:50;6.57;;;5.20;;
11006;SDS011;8186;57.652;11.968;2023-11-21T04:38:17;6.37;;;5.67;;
11006;SDS011;8186;57.652;11.968;2023-11-21T04:40:45;5.37;;;4.87;;
11006;SDS011;8186;57.652;11.968;2023-11-21T04:43:12;6.07;;;5.47;;
11006;SDS011;8186;57.652;11.968;2023-11-21T04:45:39;5.90;;;5.27;;
11006;SDS011;8186;57.652;11.968;2023-11-21T04:48:06;5.97;;;5.07;;
11006;SDS011;8186;57.652;11.968;2023-11-21T04:50:34;5.80;;;5.13;;
11006;SDS011;8186;57.652;11.968;2023-11-21T04:53:01;6.13;;;5.30;;
11006;SDS011;8186;57.652;11.968;2023-11-21T04:55:28;7.00;;;5.53;;
11006;SDS011;8186;57.652;11.968;2023-11-21T04:57:56;6.97;;;5.20;;
11006;SDS011;8186;57.652;11.968;2023-11-21T05:00:23;6.00;;;5.40;;
11006;SDS011;8186;57.652;11.968;2023-11-21T05:02:50;6.03;;;5.43;;
11006;SDS011;8186;57.652;11.968;2023-11-21T05:05:17;5.33;;;4.70;;
11006;SDS011;8186;57.652;11.968;2023-11-21T05:07:44;5.70;;;5.20;;
11006;SDS011;8186;57.652;11.968;2023-11-21T05:10:11;5.47;;;4.83;;
11006;SDS011;8186;57.652;11.968;2023-11-21T05:12:40;7.90;;;5.03;;
11006;SDS011;8186;57.652;11.968;2023-11-21T05:15:09;6.10;;;5.50;;
11006;SDS011;8186;57.652;11.968;2023-11-21T05:17:36;5.30;;;4.80;;
11006;SDS011;8186;57.652;11.968;2023-11-21T05:20:04;8.33;;;5.23;;
11006;SDS011;8186;57.652;11.968;2023-11-21T05:22:33;5.60;;;5.07;;
11006;SDS011;8186;57.652;11.968;2023-11-21T05:25:01;5.67;;;5.10;;
11006;SDS011;8186;57.652;11.968;2023-11-21T05:27:28;5.90;;;5.00;;
11006;SDS011;8186;57.652;11.968;2023-11-21T05:29:56;5.77;;;5.20;;
11006;SDS011;8186;57.652;11.968;2023-11-21T05:32:24;5.53;;;5.03;;
11006;SDS011;8186;57.652;11.968;2023-11-21T05:34:52;7.47;;;4.93;;
11006;SDS011;8186;57.652;11.968;2023-11-21T05:37:19;6.00;;;5.13;;
11006;SDS011;8186;57.652;11.968;2023-11-21T05:39:45;7.23;;;5.20;;
11006;SDS011;8186;57.652;11.968;2023-11-21T05:42:12;5.13;;;4.63;;
11006;SDS011;8186;57.652;11.968;2023-11-21T05:44:41;6.67;;;5.70;;
11006;SDS011;8186;57.652;11.968;2023-11-21T05:47:08;6.37;;;5.00;;
11006;SDS011;8186;57.652;11.968;2023-11-21T05:49:36;5.80;;;5.30;;
11006;SDS011;8186;57.652;11.968;2023-11-21T05:52:05;6.10;;;5.27;;
11006;SDS011;8186;57.652;11.968;2023-11-21T05:54:32;5.73;;;5.13;;
11006;SDS011;8186;57.652;11.968;2023-11-21T05:56:59;5.93;;;5.33;;
11006;SDS011;8186;57.652;11.968;2023-11-21T05:59:26;5.37;;;4.83;;
11006;SDS011;8186;57.652;11.968;2023-11-21T06:01:53;6.50;;;5.03;;
11006;SDS011;8186;57.652;11.968;2023-11-21T06:04:20;5.73;;;4.80;;
11006;SDS011;8186;57.652;11.968;2023-11-21T06:06:51;7.13;;;4.97;;
11006;SDS011;8186;57.652;11.968;2023-11-21T06:09:19;5.50;;;5.00;;
11006;SDS011;8186;57.652;11.968;2023-11-21T06:11:46;5.70;;;5.07;;
11006;SDS011;8186;57.652;11.968;2023-11-21T06:14:13;7.63;;;4.30;;
11006;SDS011;8186;57.652;11.968;2023-11-21T06:16:40;5.23;;;4.63;;
11006;SDS011;8186;57.652;11.968;2023-11-21T06:19:07;6.30;;;5.03;;
11006;SDS011;8186;57.652;11.968;2023-11-21T06:21:34;5.50;;;4.67;;
11006;SDS011;8186;57.652;11.968;2023-11-21T06:24:02;5.33;;;4.77;;
11006;SDS011;8186;57.652;11.968;2023-11-21T06:26:29;5.33;;;4.83;;
11006;SDS011;8186;57.652;11.968;2023-11-21T06:28:57;5.33;;;4.73;;
11006;SDS011;8186;57.652;11.968;2023-11-21T06:31:23;5.73;;;4.73;;
11006;SDS011;8186;57.652;11.968;2023-11-21T06:33:50;7.23;;;5.57;;
11006;SDS011;8186;57.652;11.968;2023-11-21T06:36:18;4.90;;;4.20;;
11006;SDS011;8186;57.652;11.968;2023-11-21T06:38:44;5.17;;;4.33;;
11006;SDS011;8186;57.652;11.968;2023-11-21T06:41:13;5.33;;;4.67;;
11006;SDS011;8186;57.652;11.968;2023-11-21T06:43:41;5.10;;;4.50;;
11006;SDS011;8186;57.652;11.968;2023-11-21T06:46:11;5.53;;;5.00;;
11006;SDS011;8186;57.652;11.968;2023-11-21T06:48:40;5.30;;;4.30;;
11006;SDS011;8186;57.652;11.968;2023-11-21T06:51:08;4.87;;;4.40;;
11006;SDS011;8186;57.652;11.968;2023-11-21T06:53:35;5.80;;;4.30;;
11006;SDS011;8186;57.652;11.968;2023-11-21T06:56:03;4.80;;;4.20;;
11006;SDS011;8186;57.652;11.968;2023-11-21T06:58:32;5.17;;;4.53;;
11006;SDS011;8186;57.652;11.968;2023-11-21T07:00:59;5.30;;;4.80;;
11006;SDS011;8186;57.652;11.968;2023-11-21T07:03:26;6.37;;;4.57;;
11006;SDS011;8186;57.652;11.968;2023-11-21T07:05:53;6.53;;;4.83;;
11006;SDS011;8186;57.652;11.968;2023-11-21T07:08:19;6.13;;;5.35;;
11006;SDS011;8186;57.652;11.968;2023-11-21T07:10:46;6.13;;;5.00;;
11006;SDS011;8186;57.652;11.968;2023-11-21T07:13:14;5.50;;;4.90;;
11006;SDS011;8186;57.652;11.968;2023-11-21T07:15:42;9.70;;;4.40;;
11006;SDS011;8186;57.652;11.968;2023-11-21T07:18:09;5.27;;;4.30;;
11006;SDS011;8186;57.652;11.968;2023-11-21T07:20:36;7.47;;;4.70;;
11006;SDS011;8186;57.652;11.968;2023-11-21T07:23:03;6.30;;;5.07;;
11006;SDS011;8186;57.652;11.968;2023-11-21T07:25:31;5.30;;;4.57;;
11006;SDS011;8186;57.652;11.968;2023-11-21T07:27:58;5.63;;;5.03;;
11006;SDS011;8186;57.652;11.968;2023-11-21T07:30:25;5.07;;;4.57;;
11006;SDS011;8186;57.652;11.968;2023-11-21T07:32:54;7.13;;;5.07;;
11006;SDS011;8186;57.652;11.968;2023-11-21T07:35:20;5.37;;;4.67;;
11006;SDS011;8186;57.652;11.968;2023-11-21T07:37:47;5.60;;;4.23;;
11006;SDS011;8186;57.652;11.968;2023-11-21T07:40:15;5.67;;;5.00;;
11006;SDS011;8186;57.652;11.968;2023-11-21T07:42:42;6.50;;;4.93;;
11006;SDS011;8186;57.652;11.968;2023-11-21T07:45:09;5.37;;;4.50;;
11006;SDS011;8186;57.652;11.968;2023-11-21T07:47:36;5.00;;;4.50;;
11006;SDS011;8186;57.652;11.968;2023-11-21T07:50:06;5.17;;;4.67;;
11006;SDS011;8186;57.652;11.968;2023-11-21T07:52:34;4.77;;;4.10;;
11006;SDS011;8186;57.652;11.968;2023-11-21T07:55:01;5.93;;;4.47;;
11006;SDS011;8186;57.652;11.968;2023-11-21T07:57:28;4.97;;;4.17;;
11006;SDS011;8186;57.652;11.968;2023-11-21T07:59:55;7.43;;;4.30;;
11006;SDS011;8186;57.652;11.968;2023-11-21T08:02:22;7.63;;;4.87;;
11006;SDS011;8186;57.652;11.968;2023-11-21T08:04:50;5.47;;;4.70;;
11006;SDS011;8186;57.652;11.968;2023-11-21T08:07:19;5.00;;;4.40;;
11006;SDS011;8186;57.652;11.968;2023-11-21T08:09:45;4.40;;;4.00;;
11006;SDS011;8186;57.652;11.968;2023-11-21T08:12:15;5.70;;;4.43;;
11006;SDS011;8186;57.652;11.968;2023-11-21T08:14:42;5.27;;;4.77;;
11006;SDS011;8186;57.652;11.968;2023-11-21T08:17:09;6.63;;;4.50;;
11006;SDS011;8186;57.652;11.968;2023-11-21T08:19:36;5.90;;;4.40;;
11006;SDS011;8186;57.652;11.968;2023-11-21T08:22:03;5.47;;;4.07;;
11006;SDS011;8186;57.652;11.968;2023-11-21T08:24:34;6.83;;;4.10;;
11006;SDS011;8186;57.652;11.968;2023-11-21T08:27:01;4.97;;;4.43;;
11006;SDS011;8186;57.652;11.968;2023-11-21T08:29:29;4.57;;;4.13;;
11006;SDS011;8186;57.652;11.968;2023-11-21T08:31:56;4.87;;;4.23;;
11006;SDS011;8186;57.652;11.968;2023-11-21T08:34:24;5.80;;;4.00;;
11006;SDS011;8186;57.652;11.968;2023-11-21T08:36:50;5.20;;;4.60;;
11006;SDS011;8186;57.652;11.968;2023-11-21T08:39:17;6.00;;;4.20;;
11006;SDS011;8186;57.652;11.968;2023-11-21T08:41:46;5.07;;;4.47;;
11006;SDS011;8186;57.652;11.968;2023-11-21T08:44:13;5.53;;;4.47;;
11006;SDS011;8186;57.652;11.968;2023-11-21T08:46:41;4.80;;;4.27;;
11006;SDS011;8186;57.652;11.968;2023-11-21T08:49:10;6.43;;;5.00;;
11006;SDS011;8186;57.652;11.968;2023-11-21T08:51:37;6.63;;;4.80;;
11006;SDS011;8186;57.652;11.968;2023-11-21T08:54:04;6.10;;;4.40;;
11006;SDS011;8186;57.652;11.968;2023-11-21T08:56:33;7.07;;;4.77;;
11006;SDS011;8186;57.652;11.968;2023-11-21T08:59:01;5.57;;;4.60;;
11006;SDS011;8186;57.652;11.968;2023-11-21T09:01:28;6.07;;;4.27;;
11006;SDS011;8186;57.652;11.968;2023-11-21T09:03:56;9.37;;;4.97;;
11006;SDS011;8186;57.652;11.968;2023-11-21T09:06:24;6.77;;;4.93;;
11006;SDS011;8186;57.652;11.968;2023-11-21T09:08:51;6.80;;;4.77;;
11006;SDS011;8186;57.652;11.968;2023-11-21T09:11:17;7.00;;;5.13;;
11006;SDS011;8186;57.652;11.968;2023-11-21T09:13:44;6.70;;;4.77;;
11006;SDS011;8186;57.652;11.968;2023-11-21T09:16:14;5.33;;;4.80;;
11006;SDS011;8186;57.652;11.968;2023-11-21T09:18:41;5.57;;;4.57;;
11006;SDS011;8186;57.652;11.968;2023-11-21T09:21:08;6.83;;;5.00;;
11006;SDS011;8186;57.652;11.968;2023-11-21T09:23:35;6.27;;;4.50;;
11006;SDS011;8186;57.652;11.968;2023-11-21T09:26:02;5.27;;;4.37;;
11006;SDS011;8186;57.652;11.968;2023-11-21T09:28:30;6.37;;;5.00;;
11006;SDS011;8186;57.652;11.968;2023-11-21T09:30:57;5.03;;;4.47;;
11006;SDS011;8186;57.652;11.968;2023-11-21T09:33:25;5.77;;;5.10;;
11006;SDS011;8186;57.652;11.968;2023-11-21T09:35:52;7.43;;;4.87;;
11006;SDS011;8186;57.652;11.968;2023-11-21T09:38:19;5.30;;;4.80;;
11006;SDS011;8186;57.652;11.968;2023-11-21T09:40:46;5.13;;;4.63;;
11006;SDS011;8186;57.652;11.968;2023-11-21T09:43:15;6.37;;;4.70;;
11006;SDS011;8186;57.652;11.968;2023-11-21T09:45:44;6.73;;;4.67;;
11006;SDS011;8186;57.652;11.968;2023-11-21T09:48:12;6.50;;;4.90;;
11006;SDS011;8186;57.652;11.968;2023-11-21T09:50:41;7.07;;;4.67;;
11006;SDS011;8186;57.652;11.968;2023-11-21T09:53:10;5.00;;;4.40;;
11006;SDS011;8186;57.652;11.968;2023-11-21T09:55:42;7.07;;;4.83;;
11006;SDS011;8186;57.652;11.968;2023-11-21T09:58:09;5.90;;;4.40;;
11006;SDS011;8186;57.652;11.968;2023-11-21T10:00:37;4.77;;;4.30;;
11006;SDS011;8186;57.652;11.968;2023-11-21T10:03:06;6.60;;;4.57;;
11006;SDS011;8186;57.652;11.968;2023-11-21T10:05:34;5.23;;;4.17;;
11006;SDS011;8186;57.652;11.968;2023-11-21T10:08:02;4.83;;;4.27;;
11006;SDS011;8186;57.652;11.968;2023-11-21T10:10:31;5.20;;;4.23;;
11006;SDS011;8186;57.652;11.968;2023-11-21T10:13:00;4.27;;;3.87;;
11006;SDS011;8186;57.652;11.968;2023-11-21T10:15:31;4.83;;;4.30;;
11006;SDS011;8186;57.652;11.968;2023-11-21T10:18:00;5.03;;;4.53;;
11006;SDS011;8186;57.652;11.968;2023-11-21T10:20:28;5.13;;;4.20;;
11006;SDS011;8186;57.652;11.968;2023-11-21T10:22:55;4.30;;;3.90;;
11006;SDS011;8186;57.652;11.968;2023-11-21T10:25:24;5.60;;;3.87;;
11006;SDS011;8186;57.652;11.968;2023-11-21T10:27:55;4.67;;;4.20;;
11006;SDS011;8186;57.652;11.968;2023-11-21T10:30:23;5.97;;;3.77;;
11006;SDS011;8186;57.652;11.968;2023-11-21T10:32:57;5.90;;;4.07;;
11006;SDS011;8186;57.652;11.968;2023-11-21T10:35:25;4.67;;;4.10;;
11006;SDS011;8186;57.652;11.968;2023-11-21T10:38:05;4.70;;;3.93;;
11006;SDS011;8186;57.652;11.968;2023-11-21T10:40:38;4.50;;;3.63;;
11006;SDS011;8186;57.652;11.968;2023-11-21T10:43:07;4.43;;;3.33;;
11006;SDS011;8186;57.652;11.968;2023-11-21T10:45:35;4.67;;;3.80;;
11006;SDS011;8186;57.652;11.968;2023-11-21T10:48:04;6.33;;;4.07;;
11006;SDS011;8186;57.652;11.968;2023-11-21T10:50:33;6.53;;;4.23;;
11006;SDS011;8186;57.652;11.968;2023-11-21T10:53:01;3.83;;;3.47;;
11006;SDS011;8186;57.652;11.968;2023-11-21T10:55:29;4.30;;;3.70;;
11006;SDS011;8186;57.652;11.968;2023-11-21T10:57:58;4.90;;;4.30;;
11006;SDS011;8186;57.652;11.968;2023-11-21T11:00:27;3.50;;;3.20;;
11006;SDS011;8186;57.652;11.968;2023-11-21T11:02:54;5.23;;;3.50;;
11006;SDS011;8186;57.652;11.968;2023-11-21T11:05:22;3.40;;;3.10;;
11006;SDS011;8186;57.652;11.968;2023-11-21T11:07:51;4.60;;;3.30;;
11006;SDS011;8186;57.652;11.968;2023-11-21T11:10:25;3.30;;;3.00;;
11006;SDS011;8186;57.652;11.968;2023-11-21T11:12:52;3.53;;;3.20;;
11006;SDS011;8186;57.652;11.968;2023-11-21T11:15:22;3.33;;;2.97;;
11006;SDS011;8186;57.652;11.968;2023-11-21T11:17:48;6.33;;;3.73;;
11006;SDS011;8186;57.652;11.968;2023-11-21T11:20:16;4.33;;;3.23;;
11006;SDS011;8186;57.652;11.968;2023-11-21T11:22:44;5.20;;;3.30;;
11006;SDS011;8186;57.652;11.968;2023-11-21T11:25:27;3.47;;;3.10;;
11006;SDS011;8186;57.652;11.968;2023-11-21T11:28:03;4.23;;;3.10;;
11006;SDS011;8186;57.652;11.968;2023-11-21T11:30:37;3.40;;;3.10;;
11006;SDS011;8186;57.652;11.968;2023-11-21T11:33:12;4.00;;;3.40;;
11006;SDS011;8186;57.652;11.968;2023-11-21T11:35:46;4.47;;;3.00;;
11006;SDS011;8186;57.652;11.968;2023-11-21T11:38:18;3.67;;;3.20;;
11006;SDS011;8186;57.652;11.968;2023-11-21T11:40:47;3.50;;;2.93;;
11006;SDS011;8186;57.652;11.968;2023-11-21T11:43:20;3.10;;;2.80;;
11006;SDS011;8186;57.652;11.968;2023-11-21T11:45:53;5.97;;;3.33;;
11006;SDS011;8186;57.652;11.968;2023-11-21T11:48:22;4.03;;;3.07;;
11006;SDS011;8186;57.652;11.968;2023-11-21T11:51:02;8.23;;;3.50;;
11006;SDS011;8186;57.652;11.968;2023-11-21T11:53:33;3.90;;;3.33;;
11006;SDS011;8186;57.652;11.968;2023-11-21T11:59:01;4.23;;;3.23;;
11006;SDS011;8186;57.652;11.968;2023-11-21T12:01:31;4.00;;;3.40;;
11006;SDS011;8186;57.652;11.968;2023-11-21T12:06:56;3.63;;;2.97;;
11006;SDS011;8186;57.652;11.968;2023-11-21T12:09:25;3.47;;;2.93;;
11006;SDS011;8186;57.652;11.968;2023-11-21T12:11:52;4.43;;;3.53;;
11006;SDS011;8186;57.652;11.968;2023-11-21T12:14:21;3.33;;;3.03;;
11006;SDS011;8186;57.652;11.968;2023-11-21T12:16:50;3.30;;;3.00;;
11006;SDS011;8186;57.652;11.968;2023-11-21T12:19:18;4.17;;;3.13;;
11006;SDS011;8186;57.652;11.968;2023-11-21T12:21:46;3.53;;;3.17;;
11006;SDS011;8186;57.652;11.968;2023-11-21T12:24:14;3.43;;;3.10;;
11006;SDS011;8186;57.652;11.968;2023-11-21T12:26:41;3.87;;;2.97;;
11006;SDS011;8186;57.652;11.968;2023-11-21T12:29:09;4.20;;;3.07;;
11006;SDS011;8186;57.652;11.968;2023-11-21T12:31:36;4.53;;;2.90;;
11006;SDS011;8186;57.652;11.968;2023-11-21T12:34:04;3.73;;;3.00;;
11006;SDS011;8186;57.652;11.968;2023-11-21T12:36:32;3.13;;;2.83;;
11006;SDS011;8186;57.652;11.968;2023-11-21T12:39:00;4.77;;;3.10;;
11006;SDS011;8186;57.652;11.968;2023-11-21T12:41:28;4.23;;;2.80;;
11006;SDS011;8186;57.652;11.968;2023-11-21T12:43:56;5.03;;;2.97;;
11006;SDS011;8186;57.652;11.968;2023-11-21T12:46:23;2.83;;;2.53;;
11006;SDS011;8186;57.652;11.968;2023-11-21T12:48:54;3.83;;;3.03;;
11006;SDS011;8186;57.652;11.968;2023-11-21T12:51:25;3.00;;;2.70;;
11006;SDS011;8186;57.652;11.968;2023-11-21T12:53:52;3.33;;;2.73;;
11006;SDS011;8186;57.652;11.968;2023-11-21T12:56:21;2.90;;;2.60;;
11006;SDS011;8186;57.652;11.968;2023-11-21T12:58:49;3.50;;;3.07;;
11006;SDS011;8186;57.652;11.968;2023-11-21T13:01:17;3.67;;;2.90;;
11006;SDS011;8186;57.652;11.968;2023-11-21T13:03:47;3.40;;;2.90;;
11006;SDS011;8186;57.652;11.968;2023-11-21T13:06:16;5.37;;;3.20;;
11006;SDS011;8186;57.652;11.968;2023-11-21T13:08:45;2.57;;;2.33;;
11006;SDS011;8186;57.652;11.968;2023-11-21T13:11:12;4.00;;;3.10;;
11006;SDS011;8186;57.652;11.968;2023-11-21T13:13:40;3.97;;;2.77;;
11006;SDS011;8186;57.652;11.968;2023-11-21T13:16:09;3.43;;;2.87;;
11006;SDS011;8186;57.652;11.968;2023-11-21T13:18:36;4.03;;;2.83;;
11006;SDS011;8186;57.652;11.968;2023-11-21T13:21:05;3.23;;;2.90;;
11006;SDS011;8186;57.652;11.968;2023-11-21T13:23:36;2.53;;;2.33;;
11006;SDS011;8186;57.652;11.968;2023-11-21T13:26:05;7.77;;;2.50;;
11006;SDS011;8186;57.652;11.968;2023-11-21T13:28:32;3.00;;;2.60;;
11006;SDS011;8186;57.652;11.968;2023-11-21T13:30:59;2.90;;;2.50;;
11006;SDS011;8186;57.652;11.968;2023-11-21T13:33:34;3.90;;;2.80;;
11006;SDS011;8186;57.652;11.968;2023-11-21T13:36:03;3.00;;;2.70;;
11006;SDS011;8186;57.652;11.968;2023-11-21T13:38:33;3.63;;;2.37;;
11006;SDS011;8186;57.652;11.968;2023-11-21T13:41:01;2.37;;;2.17;;
11006;SDS011;8186;57.652;11.968;2023-11-21T13:43:34;2.87;;;2.50;;
11006;SDS011;8186;57.652;11.968;2023-11-21T13:46:02;3.20;;;2.63;;
11006;SDS011;8186;57.652;11.968;2023-11-21T13:48:38;2.73;;;2.13;;
11006;SDS011;8186;57.652;11.968;2023-11-21T13:51:08;3.13;;;2.30;;
11006;SDS011;8186;57.652;11.968;2023-11-21T13:53:42;2.93;;;2.50;;
11006;SDS011;8186;57.652;11.968;2023-11-21T13:56:09;3.87;;;2.73;;
11006;SDS011;8186;57.652;11.968;2023-11-21T13:58:40;4.00;;;2.20;;
11006;SDS011;8186;57.652;11.968;2023-11-21T14:01:11;2.97;;;2.07;;
11006;SDS011;8186;57.652;11.968;2023-11-21T14:04:03;2.47;;;2.23;;
11006;SDS011;8186;57.652;11.968;2023-11-21T14:06:43;3.80;;;2.20;;
11006;SDS011;8186;57.652;11.968;2023-11-21T14:09:13;2.93;;;2.27;;
11006;SDS011;8186;57.652;11.968;2023-11-21T14:11:48;3.03;;;1.90;;
11006;SDS011;8186;57.652;11.968;2023-11-21T14:14:18;2.30;;;1.90;;
11006;SDS011;8186;57.652;11.968;2023-11-21T14:16:45;1.83;;;1.70;;
11006;SDS011;8186;57.652;11.968;2023-11-21T14:19:12;3.10;;;2.00;;
11006;SDS011;8186;57.652;11.968;2023-11-21T14:21:42;2.47;;;2.20;;
11006;SDS011;8186;57.652;11.968;2023-11-21T14:24:10;2.30;;;2.00;;
11006;SDS011;8186;57.652;11.968;2023-11-21T14:26:38;3.20;;;2.20;;
11006;SDS011;8186;57.652;11.968;2023-11-21T14:29:07;3.33;;;2.30;;
11006;SDS011;8186;57.652;11.968;2023-11-21T14:31:37;2.40;;;2.03;;
11006;SDS011;8186;57.652;11.968;2023-11-21T14:34:04;2.33;;;2.00;;
11006;SDS011;8186;57.652;11.968;2023-11-21T14:36:32;3.13;;;2.20;;
11006;SDS011;8186;57.652;11.968;2023-11-21T14:38:59;2.40;;;2.20;;
11006;SDS011;8186;57.652;11.968;2023-11-21T14:41:26;2.23;;;2.03;;
11006;SDS011;8186;57.652;11.968;2023-11-21T14:43:54;2.57;;;2.27;;
11006;SDS011;8186;57.652;11.968;2023-11-21T14:46:22;2.37;;;2.17;;
11006;SDS011;8186;57.652;11.968;2023-11-21T14:48:51;2.40;;;2.20;;
11006;SDS011;8186;57.652;11.968;2023-11-21T14:51:27;2.47;;;2.27;;
11006;SDS011;8186;57.652;11.968;2023-11-21T14:53:56;4.50;;;2.23;;
11006;SDS011;8186;57.652;11.968;2023-11-21T14:56:25;2.93;;;2.40;;
11006;SDS011;8186;57.652;11.968;2023-11-21T14:58:56;3.17;;;2.03;;